createdAt,value
2022-08-29T00:00:31.141Z,1.58
2022-08-29T00:03:00.157Z,1.40
2022-08-29T00:05:33.154Z,1.75
2022-08-29T00:08:02.175Z,1.30
2022-08-29T00:10:30.967Z,1.38
2022-08-29T00:12:57.861Z,1.38
2022-08-29T00:15:25.520Z,1.20
2022-08-29T00:17:52.851Z,1.08
2022-08-29T00:20:30.265Z,1.20
2022-08-29T00:23:02.218Z,1.52
2022-08-29T00:25:29.326Z,1.17
2022-08-29T00:27:56.015Z,1.30
2022-08-29T00:30:23.977Z,1.70
2022-08-29T00:32:51.209Z,1.30
2022-08-29T00:35:24.361Z,1.60
2022-08-29T00:37:52.038Z,0.95
2022-08-29T00:40:26.590Z,1.58
2022-08-29T00:42:53.584Z,1.20
2022-08-29T00:45:20.725Z,1.27
2022-08-29T00:48:00.888Z,1.63
2022-08-29T00:50:40.968Z,1.88
2022-08-29T00:53:11.888Z,1.40
2022-08-29T00:55:40.271Z,1.55
2022-08-29T00:58:28.418Z,1.35
2022-08-29T01:00:55.404Z,1.77
2022-08-29T01:03:22.124Z,1.48
2022-08-29T01:05:49.336Z,1.17
2022-08-29T01:08:16.389Z,1.95
2022-08-29T01:11:01.933Z,1.50
2022-08-29T01:13:34.892Z,1.67
2022-08-29T01:16:03.206Z,1.52
2022-08-29T01:18:33.988Z,1.52
2022-08-29T01:21:28.665Z,1.80
2022-08-29T01:24:01.268Z,1.63
2022-08-29T01:26:30.047Z,1.20
2022-08-29T01:28:57.279Z,1.25
2022-08-29T01:31:38.598Z,1.60
2022-08-29T01:34:15.524Z,1.58
2022-08-29T01:36:50.502Z,1.38
2022-08-29T01:39:23.599Z,1.52
2022-08-29T01:41:51.427Z,1.38
2022-08-29T01:44:19.988Z,1.27
2022-08-29T01:46:49.120Z,1.50
2022-08-29T01:49:18.031Z,1.65
2022-08-29T01:51:45.620Z,1.50
2022-08-29T01:54:12.926Z,1.17
2022-08-29T01:56:43.082Z,1.23
2022-08-29T01:59:14.095Z,1.45
2022-08-29T02:01:44.699Z,1.42
2022-08-29T02:04:11.774Z,1.45
2022-08-29T02:06:38.898Z,1.58
2022-08-29T02:09:06.375Z,1.13
2022-08-29T02:11:36.318Z,1.35
2022-08-29T02:14:04.490Z,1.65
2022-08-29T02:16:31.906Z,2.33
2022-08-29T02:18:59.762Z,1.65
2022-08-29T02:21:29.018Z,1.40
2022-08-29T02:23:58.929Z,1.58
2022-08-29T02:26:26.120Z,1.52
2022-08-29T02:28:52.928Z,1.38
2022-08-29T02:31:22.607Z,1.60
2022-08-29T02:33:50.120Z,1.40
2022-08-29T02:36:17.096Z,1.40
2022-08-29T02:38:46.567Z,1.77
2022-08-29T02:41:14.395Z,1.75
2022-08-29T02:43:42.131Z,1.63
2022-08-29T02:46:12.446Z,1.63
2022-08-29T02:48:39.159Z,1.25
2022-08-29T02:51:05.981Z,1.50
2022-08-29T02:53:32.665Z,1.80
2022-08-29T02:55:59.318Z,1.70
2022-08-29T02:58:26.058Z,1.40
2022-08-29T03:00:54.116Z,1.70
2022-08-29T03:03:20.962Z,1.67
2022-08-29T03:05:48.022Z,1.58
2022-08-29T03:08:15.011Z,1.95
2022-08-29T03:10:43.298Z,1.90
2022-08-29T03:13:10.868Z,1.75
2022-08-29T03:15:38.143Z,2.08
2022-08-29T03:18:05.277Z,1.70
2022-08-29T03:20:34.475Z,2.35
2022-08-29T03:23:01.671Z,2.10
2022-08-29T03:25:28.549Z,1.95
2022-08-29T03:27:55.230Z,1.70
2022-08-29T03:30:23.971Z,1.80
2022-08-29T03:32:50.924Z,2.05
2022-08-29T03:35:19.502Z,2.00
2022-08-29T03:37:46.376Z,2.08
2022-08-29T03:40:13.663Z,2.10
2022-08-29T03:42:42.768Z,2.10
2022-08-29T03:45:15.500Z,2.00
2022-08-29T03:47:42.665Z,2.47
2022-08-29T03:50:11.102Z,2.38
2022-08-29T03:52:37.821Z,2.17
2022-08-29T03:55:07.407Z,2.60
2022-08-29T03:57:34.775Z,2.17
2022-08-29T04:00:10.194Z,1.90
2022-08-29T04:02:40.054Z,1.98
2022-08-29T04:05:08.438Z,1.90
2022-08-29T04:07:44.846Z,2.38
2022-08-29T04:10:15.156Z,2.22
2022-08-29T04:12:41.808Z,1.95
2022-08-29T04:15:09.376Z,2.17
2022-08-29T04:17:36.249Z,2.10
2022-08-29T04:20:05.459Z,2.13
2022-08-29T04:22:33.904Z,2.47
2022-08-29T04:25:00.556Z,2.28
2022-08-29T04:27:27.759Z,2.25
2022-08-29T04:29:54.394Z,2.20
2022-08-29T04:32:21.109Z,2.25
2022-08-29T04:34:47.889Z,2.22
2022-08-29T04:37:14.921Z,2.45
2022-08-29T04:39:42.010Z,2.25
2022-08-29T04:42:08.656Z,2.00
2022-08-29T04:44:35.565Z,2.05
2022-08-29T04:47:02.212Z,2.33
2022-08-29T04:49:28.970Z,2.38
2022-08-29T04:51:55.610Z,2.30
2022-08-29T04:54:23.184Z,2.50
2022-08-29T04:56:49.876Z,2.20
2022-08-29T04:59:17.850Z,2.25
2022-08-29T05:01:45.478Z,2.20
2022-08-29T05:04:14.593Z,2.20
2022-08-29T05:06:41.815Z,2.15
2022-08-29T05:09:08.694Z,2.67
2022-08-29T05:11:35.391Z,2.75
2022-08-29T05:14:02.598Z,2.30
2022-08-29T05:16:30.695Z,2.20
2022-08-29T05:18:59.435Z,2.13
2022-08-29T05:21:35.240Z,2.08
2022-08-29T05:24:07.403Z,2.13
2022-08-29T05:26:37.192Z,2.35
2022-08-29T05:29:08.653Z,2.05
2022-08-29T05:31:37.013Z,2.45
2022-08-29T05:34:14.074Z,2.40
2022-08-29T05:36:52.099Z,2.25
2022-08-29T05:39:19.663Z,2.20
2022-08-29T05:41:46.406Z,1.92
2022-08-29T05:44:13.186Z,2.70
2022-08-29T05:46:40.496Z,2.72
2022-08-29T05:49:07.262Z,3.05
2022-08-29T05:51:39.337Z,2.83
2022-08-29T05:54:07.156Z,2.42
2022-08-29T05:56:34.125Z,2.33
2022-08-29T05:59:01.184Z,2.25
2022-08-29T06:01:32.965Z,2.33
2022-08-29T06:04:00.962Z,2.70
2022-08-29T06:06:29.115Z,3.30
2022-08-29T06:08:57.226Z,2.50
2022-08-29T06:11:27.013Z,2.10
2022-08-29T06:13:54.345Z,2.45
2022-08-29T06:16:23.286Z,1.98
2022-08-29T06:18:50.633Z,2.28
2022-08-29T06:21:17.849Z,1.92
2022-08-29T06:23:45.740Z,1.90
2022-08-29T06:26:14.230Z,2.03
2022-08-29T06:28:45.808Z,2.28
2022-08-29T06:31:22.070Z,2.30
2022-08-29T06:33:53.805Z,2.00
2022-08-29T06:36:20.990Z,2.15
2022-08-29T06:38:48.135Z,2.10
2022-08-29T06:41:17.014Z,2.00
2022-08-29T06:43:44.839Z,2.30
2022-08-29T06:46:34.691Z,1.88
2022-08-29T06:49:04.610Z,2.50
2022-08-29T06:51:33.251Z,2.03
2022-08-29T06:54:01.529Z,2.05
2022-08-29T06:56:29.872Z,2.22
2022-08-29T06:58:56.937Z,2.22
2022-08-29T07:01:24.142Z,1.90
2022-08-29T07:03:54.229Z,2.22
2022-08-29T07:06:21.362Z,2.47
2022-08-29T07:08:55.437Z,2.28
2022-08-29T07:11:24.787Z,2.80
2022-08-29T07:13:51.546Z,2.75
2022-08-29T07:16:18.984Z,2.30
2022-08-29T07:18:47.171Z,2.83
2022-08-29T07:21:20.320Z,2.58
2022-08-29T07:23:48.215Z,1.85
2022-08-29T07:26:21.068Z,2.60
2022-08-29T07:28:49.770Z,2.60
2022-08-29T07:31:16.754Z,2.45
2022-08-29T07:33:43.715Z,2.30
2022-08-29T07:36:10.703Z,2.42
2022-08-29T07:38:38.265Z,2.20
2022-08-29T07:41:08.573Z,2.38
2022-08-29T07:43:35.623Z,2.40
2022-08-29T07:46:20.369Z,2.25
2022-08-29T07:48:47.684Z,2.00
2022-08-29T07:51:17.580Z,2.05
2022-08-29T07:53:45.542Z,1.98
2022-08-29T07:56:16.472Z,2.45
2022-08-29T07:58:43.513Z,2.20
2022-08-29T08:01:12.581Z,2.25
2022-08-29T08:03:47.788Z,2.55
2022-08-29T08:06:14.621Z,1.98
2022-08-29T08:08:41.914Z,2.33
2022-08-29T08:11:09.535Z,2.65
2022-08-29T08:13:37.705Z,2.20
2022-08-29T08:16:10.671Z,2.40
2022-08-29T08:18:39.096Z,2.13
2022-08-29T08:21:06.065Z,1.60
2022-08-29T08:23:33.324Z,2.20
2022-08-29T08:26:00.871Z,2.10
2022-08-29T08:28:29.167Z,1.70
2022-08-29T08:30:56.658Z,1.85
2022-08-29T08:33:23.808Z,1.73
2022-08-29T08:35:51.047Z,1.80
2022-08-29T08:38:18.178Z,1.55
2022-08-29T08:41:05.711Z,1.63
2022-08-29T08:43:49.367Z,2.03
2022-08-29T08:46:16.675Z,2.13
2022-08-29T08:48:44.480Z,2.03
2022-08-29T08:51:33.778Z,1.90
2022-08-29T08:54:03.940Z,2.25
2022-08-29T08:56:44.391Z,2.03
2022-08-29T08:59:23.138Z,2.05
2022-08-29T09:02:22.668Z,2.33
2022-08-29T09:05:20.395Z,2.10
2022-08-29T09:08:22.217Z,2.25
2022-08-29T09:11:13.345Z,2.33
2022-08-29T09:13:55.484Z,2.10
2022-08-29T09:16:46.785Z,2.30
2022-08-29T09:19:17.263Z,1.85
2022-08-29T09:21:55.272Z,2.03
2022-08-29T09:24:40.683Z,2.10
2022-08-29T09:27:08.997Z,1.77
2022-08-29T09:29:37.274Z,1.92
2022-08-29T09:32:09.949Z,1.83
2022-08-29T09:35:07.333Z,1.80
2022-08-29T09:37:34.906Z,1.85
2022-08-29T09:40:10.933Z,1.52
2022-08-29T09:42:42.182Z,1.75
2022-08-29T09:45:24.905Z,1.60
2022-08-29T09:48:15.826Z,1.48
2022-08-29T09:50:43.547Z,1.83
2022-08-29T09:53:24.372Z,1.80
2022-08-29T09:55:52.392Z,1.25
2022-08-29T09:58:22.054Z,1.88
2022-08-29T10:01:00.234Z,1.48
2022-08-29T10:03:30.093Z,1.65
2022-08-29T10:06:16.380Z,2.15
2022-08-29T10:08:57.176Z,1.60
2022-08-29T10:11:46.054Z,1.50
2022-08-29T10:14:38.167Z,1.33
2022-08-29T10:17:57.230Z,1.25
2022-08-29T10:20:48.103Z,1.30
2022-08-29T10:23:39.930Z,1.63
2022-08-29T10:26:24.402Z,1.35
2022-08-29T10:28:59.325Z,1.20
2022-08-29T10:31:54.569Z,1.38
2022-08-29T10:34:32.342Z,1.40
2022-08-29T10:37:08.152Z,1.73
2022-08-29T10:40:06.659Z,1.33
2022-08-29T10:42:37.028Z,1.40
2022-08-29T10:45:06.645Z,1.17
2022-08-29T10:47:40.671Z,1.10
2022-08-29T10:50:21.751Z,1.00
2022-08-29T10:53:13.132Z,1.27
2022-08-29T10:56:04.489Z,1.40
2022-08-29T10:58:55.104Z,1.00
2022-08-29T11:01:28.863Z,1.10
2022-08-29T11:04:17.703Z,1.15
2022-08-29T11:06:52.740Z,1.17
2022-08-29T11:09:35.241Z,1.23
2022-08-29T11:12:17.339Z,1.13
2022-08-29T11:15:08.925Z,1.25
2022-08-29T11:17:40.664Z,1.40
2022-08-29T11:20:27.397Z,1.52
2022-08-29T11:23:11.640Z,1.20
2022-08-29T11:25:41.926Z,1.15
2022-08-29T11:28:17.813Z,1.25
2022-08-29T11:30:57.208Z,1.00
2022-08-29T11:33:32.832Z,1.30
2022-08-29T11:36:27.859Z,1.23
2022-08-29T11:39:25.458Z,1.25
2022-08-29T11:41:58.556Z,1.10
2022-08-29T11:44:34.611Z,1.20
2022-08-29T11:47:21.521Z,1.40
2022-08-29T11:49:51.460Z,1.20
2022-08-29T11:52:22.694Z,1.27
2022-08-29T11:54:54.252Z,1.75
2022-08-29T11:57:20.933Z,1.50
2022-08-29T11:59:56.569Z,1.33
2022-08-29T12:02:48.721Z,1.40
2022-08-29T12:05:20.669Z,1.20
2022-08-29T12:07:53.635Z,1.30
2022-08-29T12:10:20.356Z,1.35
2022-08-29T12:12:51.214Z,1.58
2022-08-29T12:15:27.218Z,1.38
2022-08-29T12:18:02.516Z,1.55
2022-08-29T12:20:47.940Z,1.40
2022-08-29T12:23:14.819Z,1.80
2022-08-29T12:26:09.880Z,1.50
2022-08-29T12:28:59.442Z,1.25
2022-08-29T12:31:35.592Z,1.05
2022-08-29T12:34:24.762Z,1.13
2022-08-29T12:37:18.333Z,1.35
2022-08-29T12:39:53.896Z,1.83
2022-08-29T12:42:37.009Z,1.42
2022-08-29T12:45:12.734Z,1.50
2022-08-29T12:47:57.432Z,1.30
2022-08-29T12:50:26.964Z,1.55
2022-08-29T12:53:06.904Z,1.45
2022-08-29T12:55:40.421Z,1.45
2022-08-29T12:58:09.287Z,1.60
2022-08-29T13:00:36.702Z,1.40
2022-08-29T13:03:15.271Z,1.30
2022-08-29T13:05:43.383Z,1.20
2022-08-29T13:08:15.420Z,1.10
2022-08-29T13:11:00.127Z,1.33
2022-08-29T13:13:28.377Z,1.38
2022-08-29T13:16:00.321Z,1.35
2022-08-29T13:18:27.735Z,1.30
2022-08-29T13:21:18.955Z,1.48
2022-08-29T13:23:56.442Z,1.35
2022-08-29T13:26:27.595Z,1.40
2022-08-29T13:29:14.482Z,1.13
2022-08-29T13:31:42.265Z,1.20
2022-08-29T13:34:19.177Z,1.52
2022-08-29T13:37:03.332Z,1.40
2022-08-29T13:39:41.742Z,1.30
2022-08-29T13:42:19.055Z,1.60
2022-08-29T13:44:48.828Z,1.45
2022-08-29T13:47:25.312Z,1.50
2022-08-29T13:50:01.422Z,1.40
2022-08-29T13:52:31.529Z,1.33
2022-08-29T13:54:59.370Z,1.20
2022-08-29T13:57:29.164Z,1.50
2022-08-29T13:59:57.048Z,0.98
2022-08-29T14:02:25.191Z,1.30
2022-08-29T14:04:52.218Z,1.50
2022-08-29T14:07:30.996Z,1.35
2022-08-29T14:09:58.582Z,1.23
2022-08-29T14:12:33.590Z,1.23
2022-08-29T14:15:09.292Z,1.40
2022-08-29T14:17:39.061Z,1.27
2022-08-29T14:20:07.553Z,1.10
2022-08-29T14:22:34.373Z,1.40
2022-08-29T14:25:02.576Z,1.35
2022-08-29T14:27:29.655Z,1.17
2022-08-29T14:29:56.714Z,1.55
2022-08-29T14:32:24.239Z,1.50
2022-08-29T14:34:53.797Z,1.40
2022-08-29T14:37:21.030Z,1.52
2022-08-29T14:39:49.939Z,1.48
2022-08-29T14:42:17.784Z,1.40
2022-08-29T14:44:44.605Z,1.75
2022-08-29T14:47:11.381Z,1.70
2022-08-29T14:49:38.242Z,1.38
2022-08-29T14:52:05.598Z,1.10
2022-08-29T14:54:32.363Z,1.65
2022-08-29T14:56:59.535Z,1.30
2022-08-29T14:59:26.656Z,1.17
2022-08-29T15:01:54.964Z,1.38
2022-08-29T15:04:35.983Z,1.15
2022-08-29T15:07:13.489Z,1.20
2022-08-29T15:09:43.604Z,1.58
2022-08-29T15:12:12.267Z,1.50
2022-08-29T15:14:39.376Z,1.48
2022-08-29T15:17:06.402Z,1.33
2022-08-29T15:22:21.765Z,1.55
2022-08-29T15:24:50.259Z,1.30
2022-08-29T15:27:21.587Z,1.55
2022-08-29T15:29:50.529Z,1.45
2022-08-29T15:32:19.612Z,1.67
2022-08-29T15:34:46.452Z,1.50
2022-08-29T15:37:13.770Z,1.40
2022-08-29T15:39:41.452Z,1.52
2022-08-29T15:42:11.212Z,1.60
2022-08-29T15:44:39.653Z,1.40
2022-08-29T15:47:07.007Z,1.70
2022-08-29T15:49:38.434Z,1.50
2022-08-29T15:52:05.274Z,1.40
2022-08-29T15:54:32.005Z,1.30
2022-08-29T15:56:58.770Z,1.67
2022-08-29T15:59:41.484Z,2.00
2022-08-29T16:02:14.338Z,1.90
2022-08-29T16:04:47.345Z,1.40
2022-08-29T16:07:14.824Z,1.90
2022-08-29T16:09:42.321Z,2.28
2022-08-29T16:12:10.096Z,1.73
2022-08-29T16:17:23.986Z,1.95
2022-08-29T16:19:50.638Z,1.58
2022-08-29T16:22:17.302Z,1.92
2022-08-29T16:24:44.197Z,1.50
2022-08-29T16:27:11.030Z,2.00
2022-08-29T16:29:37.911Z,1.88
2022-08-29T16:32:05.748Z,1.80
2022-08-29T16:34:32.400Z,1.67
2022-08-29T16:37:02.439Z,2.10
2022-08-29T16:39:29.594Z,2.08
2022-08-29T16:41:56.483Z,1.90
2022-08-29T16:44:23.574Z,1.80
2022-08-29T16:46:50.260Z,1.58
2022-08-29T16:49:17.027Z,2.08
2022-08-29T16:51:43.881Z,1.92
2022-08-29T16:54:12.292Z,1.70
2022-08-29T16:56:39.651Z,2.67
2022-08-29T16:59:06.465Z,1.88
2022-08-29T17:01:39.052Z,2.28
2022-08-29T17:04:10.536Z,2.00
2022-08-29T17:06:39.520Z,1.70
2022-08-29T17:09:08.839Z,1.77
2022-08-29T17:11:36.880Z,1.65
2022-08-29T17:14:04.596Z,1.67
2022-08-29T17:16:31.917Z,1.70
2022-08-29T17:18:58.722Z,1.65
2022-08-29T17:21:26.938Z,1.75
2022-08-29T17:23:55.207Z,2.10
2022-08-29T17:26:22.702Z,1.95
2022-08-29T17:28:49.430Z,1.88
2022-08-29T17:31:16.216Z,1.48
2022-08-29T17:33:42.958Z,1.80
2022-08-29T17:36:10.762Z,1.90
2022-08-29T17:38:41.245Z,2.00
2022-08-29T17:41:15.366Z,1.63
2022-08-29T17:43:45.063Z,2.10
2022-08-29T17:46:11.927Z,2.10
2022-08-29T17:48:38.708Z,2.10
2022-08-29T17:51:06.001Z,1.70
2022-08-29T17:53:33.043Z,1.80
2022-08-29T17:56:30.342Z,1.98
2022-08-29T17:58:58.435Z,1.92
2022-08-29T18:01:25.129Z,2.42
2022-08-29T18:03:58.845Z,1.60
2022-08-29T18:06:30.194Z,1.83
2022-08-29T18:08:59.083Z,2.05
2022-08-29T18:11:26.997Z,2.28
2022-08-29T18:13:55.068Z,1.83
2022-08-29T18:16:21.973Z,1.65
2022-08-29T18:18:48.898Z,1.80
2022-08-29T18:21:18.564Z,1.52
2022-08-29T18:23:45.750Z,1.77
2022-08-29T18:26:13.262Z,1.73
2022-08-29T18:28:40.951Z,2.05
2022-08-29T18:31:09.343Z,2.00
2022-08-29T18:33:57.363Z,2.53
2022-08-29T18:36:25.858Z,2.10
2022-08-29T18:38:52.794Z,1.60
2022-08-29T18:41:19.521Z,1.92
2022-08-29T18:43:46.701Z,1.60
2022-08-29T18:46:13.578Z,1.60
2022-08-29T18:48:42.008Z,2.35
2022-08-29T18:51:08.730Z,1.85
2022-08-29T18:53:35.395Z,1.73
2022-08-29T18:56:02.515Z,2.05
2022-08-29T18:58:31.407Z,2.15
2022-08-29T19:00:59.335Z,1.73
2022-08-29T19:03:26.254Z,2.03
2022-08-29T19:05:53.836Z,2.38
2022-08-29T19:08:24.489Z,2.10
2022-08-29T19:10:55.347Z,1.80
2022-08-29T19:13:22.606Z,1.60
2022-08-29T19:15:56.213Z,1.88
2022-08-29T19:18:22.998Z,1.60
2022-08-29T19:21:02.340Z,2.08
2022-08-29T19:23:43.773Z,2.10
2022-08-29T19:26:15.049Z,1.90
2022-08-29T19:28:42.266Z,1.98
2022-08-29T19:31:09.250Z,1.90
2022-08-29T19:33:36.664Z,1.67
2022-08-29T19:36:05.836Z,1.70
2022-08-29T19:38:32.738Z,2.33
2022-08-29T19:40:59.865Z,1.80
2022-08-29T19:43:29.383Z,2.17
2022-08-29T19:45:57.495Z,1.80
2022-08-29T19:48:26.475Z,1.88
2022-08-29T19:50:54.085Z,1.95
2022-08-29T19:53:25.996Z,1.88
2022-08-29T19:55:55.544Z,2.10
2022-08-29T19:58:22.753Z,2.05
2022-08-29T20:00:57.896Z,2.42
2022-08-29T20:03:24.626Z,2.10
2022-08-29T20:05:51.590Z,2.22
2022-08-29T20:08:18.263Z,2.38
2022-08-29T20:10:49.582Z,1.70
2022-08-29T20:13:17.352Z,2.10
2022-08-29T20:15:44.440Z,1.90
2022-08-29T20:18:13.013Z,2.10
2022-08-29T20:20:40.238Z,1.83
2022-08-29T20:23:08.237Z,1.95
2022-08-29T20:25:35.534Z,2.20
2022-08-29T20:28:03.031Z,2.00
2022-08-29T20:30:31.679Z,2.10
2022-08-29T20:32:58.825Z,1.73
2022-08-29T20:35:44.595Z,1.70
2022-08-29T20:38:11.439Z,1.45
2022-08-29T20:40:46.606Z,1.92
2022-08-29T20:43:17.500Z,1.70
2022-08-29T20:45:44.599Z,1.92
2022-08-29T20:48:12.327Z,1.50
2022-08-29T20:50:40.076Z,1.50
2022-08-29T20:53:07.251Z,1.55
2022-08-29T20:55:34.236Z,1.10
2022-08-29T20:58:01.101Z,1.50
2022-08-29T21:00:28.318Z,1.45
2022-08-29T21:03:13.749Z,1.20
2022-08-29T21:05:43.290Z,1.30
2022-08-29T21:08:13.332Z,1.10
2022-08-29T21:10:40.041Z,1.23
2022-08-29T21:13:06.790Z,1.13
2022-08-29T21:15:33.882Z,1.40
2022-08-29T21:18:00.675Z,1.42
2022-08-29T21:20:27.916Z,1.20
2022-08-29T21:22:54.571Z,1.05
2022-08-29T21:25:21.454Z,0.98
2022-08-29T21:27:48.162Z,0.93
2022-08-29T21:30:15.434Z,1.00
2022-08-29T21:32:42.175Z,0.85
2022-08-29T21:35:09.169Z,1.00
2022-08-29T21:37:35.909Z,1.00
2022-08-29T21:40:05.611Z,1.15
2022-08-29T21:42:32.875Z,0.95
2022-08-29T21:44:59.691Z,0.93
2022-08-29T21:47:26.908Z,1.05
2022-08-29T21:49:53.899Z,0.90
2022-08-29T21:52:21.339Z,1.10
2022-08-29T21:54:49.896Z,1.00
2022-08-29T21:57:39.440Z,1.30
2022-08-29T22:00:08.288Z,0.88
2022-08-29T22:02:35.065Z,1.45
2022-08-29T22:05:02.379Z,1.23
2022-08-29T22:07:30.158Z,1.15
2022-08-29T22:09:56.792Z,0.90
2022-08-29T22:12:24.867Z,1.20
2022-08-29T22:15:10.408Z,1.08
2022-08-29T22:17:37.261Z,1.35
2022-08-29T22:20:04.807Z,1.10
2022-08-29T22:22:31.438Z,0.88
2022-08-29T22:24:58.131Z,1.23
2022-08-29T22:27:24.775Z,1.30
2022-08-29T22:29:51.405Z,1.15
2022-08-29T22:32:18.095Z,0.98
2022-08-29T22:34:44.736Z,1.52
2022-08-29T22:37:11.369Z,1.50
2022-08-29T22:39:38.050Z,1.40
2022-08-29T22:42:04.953Z,1.30
2022-08-29T22:45:00.026Z,1.50
2022-08-29T22:47:18.838Z,1.30
2022-08-29T22:49:45.744Z,1.27
2022-08-29T22:52:12.716Z,1.30
2022-08-29T22:54:40.062Z,1.30
2022-08-29T22:57:15.891Z,1.17
2022-08-29T22:59:43.591Z,1.02
2022-08-29T23:02:11.795Z,1.58
2022-08-29T23:04:39.002Z,1.23
2022-08-29T23:07:07.224Z,1.33
2022-08-29T23:09:35.706Z,1.42
2022-08-29T23:12:06.733Z,1.48
2022-08-29T23:14:38.320Z,1.65
2022-08-29T23:17:06.847Z,1.10
2022-08-29T23:19:34.368Z,1.70
2022-08-29T23:22:02.501Z,1.50
2022-08-29T23:24:30.342Z,1.70
2022-08-29T23:26:57.233Z,1.95
2022-08-29T23:29:24.038Z,1.65
2022-08-29T23:31:50.773Z,1.73
2022-08-29T23:34:17.464Z,1.65
2022-08-29T23:36:44.258Z,1.40
2022-08-29T23:39:11.101Z,1.70
2022-08-29T23:41:37.821Z,1.58
2022-08-29T23:44:04.834Z,1.80
2022-08-29T23:46:31.638Z,1.75
2022-08-29T23:48:58.396Z,1.63
2022-08-29T23:51:25.046Z,1.80
2022-08-29T23:53:52.008Z,1.50
2022-08-29T23:56:20.411Z,1.60
2022-08-29T23:58:47.860Z,2.00
